sensor_id;sensor_type;location;lat;lon;timestamp;pressure;altitude;pressure_sealevel;temperature;humidity
25944;BME280;13742;49.306;8.636;2024-03-23T00:52:18;99683.77;;;12.46;77.02
25944;BME280;13742;49.306;8.636;2024-03-23T00:53:18;99677.70;;;12.47;77.18
25944;BME280;13742;49.306;8.636;2024-03-23T00:54:18;99672.05;;;12.47;76.88
25944;BME280;13742;49.306;8.636;2024-03-23T00:55:18;99673.70;;;12.48;77.06
25944;BME280;13742;49.306;8.636;2024-03-23T00:56:18;99670.14;;;12.48;76.88
25944;BME280;13742;49.306;8.636;2024-03-23T00:57:18;99664.02;;;12.48;76.90
25944;BME280;13742;49.306;8.636;2024-03-23T00:58:18;99658.72;;;12.50;76.76
25944;BME280;13742;49.306;8.636;2024-03-23T00:59:18;99655.69;;;12.50;76.73
25944;BME280;13742;49.306;8.636;2024-03-23T01:00:18;99650.88;;;12.50;76.91
25944;BME280;13742;49.306;8.636;2024-03-23T01:01:18;99659.27;;;12.51;76.86
25944;BME280;13742;49.306;8.636;2024-03-23T01:02:18;99665.25;;;12.51;76.59
25944;BME280;13742;49.306;8.636;2024-03-23T01:03:18;99671.31;;;12.53;76.73
25944;BME280;13742;49.306;8.636;2024-03-23T01:04:18;99674.06;;;12.53;76.59
25944;BME280;13742;49.306;8.636;2024-03-23T01:05:18;99667.01;;;12.54;76.73
25944;BME280;13742;49.306;8.636;2024-03-23T01:06:18;99660.44;;;12.55;76.75
25944;BME280;13742;49.306;8.636;2024-03-23T01:07:18;99662.05;;;12.56;76.64
25944;BME280;13742;49.306;8.636;2024-03-23T01:08:18;99654.61;;;12.56;76.86
25944;BME280;13742;49.306;8.636;2024-03-23T01:09:18;99653.94;;;12.57;76.54
25944;BME280;13742;49.306;8.636;2024-03-23T01:10:18;99653.56;;;12.58;76.76
25944;BME280;13742;49.306;8.636;2024-03-23T01:11:18;99650.26;;;12.58;76.92
25944;BME280;13742;49.306;8.636;2024-03-23T01:12:18;99653.52;;;12.59;77.10
25944;BME280;13742;49.306;8.636;2024-03-23T01:13:21;99649.36;;;12.58;76.79
25944;BME280;13742;49.306;8.636;2024-03-23T01:14:18;99651.13;;;12.59;76.77
25944;BME280;13742;49.306;8.636;2024-03-23T01:15:18;99644.39;;;12.58;76.56
25944;BME280;13742;49.306;8.636;2024-03-23T01:16:18;99643.89;;;12.58;76.25
25944;BME280;13742;49.306;8.636;2024-03-23T01:17:18;99646.33;;;12.59;76.87
25944;BME280;13742;49.306;8.636;2024-03-23T01:18:18;99645.06;;;12.58;76.44
25944;BME280;13742;49.306;8.636;2024-03-23T01:19:18;99643.56;;;12.58;76.37
25944;BME280;13742;49.306;8.636;2024-03-23T01:20:18;99641.47;;;12.58;76.12
25944;BME280;13742;49.306;8.636;2024-03-23T01:21:18;99638.55;;;12.57;76.19
25944;BME280;13742;49.306;8.636;2024-03-23T01:22:18;99638.09;;;12.58;76.26
25944;BME280;13742;49.306;8.636;2024-03-23T01:23:18;99635.84;;;12.58;76.26
25944;BME280;13742;49.306;8.636;2024-03-23T01:24:18;99637.98;;;12.58;76.75
25944;BME280;13742;49.306;8.636;2024-03-23T01:25:18;99636.30;;;12.59;76.86
25944;BME280;13742;49.306;8.636;2024-03-23T01:26:18;99636.34;;;12.58;76.53
25944;BME280;13742;49.306;8.636;2024-03-23T01:27:18;99636.34;;;12.58;76.38
25944;BME280;13742;49.306;8.636;2024-03-23T01:28:18;99631.92;;;12.59;76.74
25944;BME280;13742;49.306;8.636;2024-03-23T01:29:18;99630.81;;;12.58;76.81
25944;BME280;13742;49.306;8.636;2024-03-23T01:30:18;99623.59;;;12.58;76.79
25944;BME280;13742;49.306;8.636;2024-03-23T01:31:18;99621.55;;;12.57;77.15
25944;BME280;13742;49.306;8.636;2024-03-23T01:32:18;99623.30;;;12.57;77.07
25944;BME280;13742;49.306;8.636;2024-03-23T01:33:18;99621.14;;;12.56;77.05
25944;BME280;13742;49.306;8.636;2024-03-23T01:34:19;99620.50;;;12.56;77.33
25944;BME280;13742;49.306;8.636;2024-03-23T01:35:18;99619.55;;;12.57;77.26
25944;BME280;13742;49.306;8.636;2024-03-23T01:36:18;99615.70;;;12.56;77.01
25944;BME280;13742;49.306;8.636;2024-03-23T01:37:18;99610.94;;;12.57;77.04
25944;BME280;13742;49.306;8.636;2024-03-23T01:38:18;99602.12;;;12.56;77.03
25944;BME280;13742;49.306;8.636;2024-03-23T01:39:18;99602.38;;;12.56;76.94
25944;BME280;13742;49.306;8.636;2024-03-23T01:40:18;99604.20;;;12.56;76.54
25944;BME280;13742;49.306;8.636;2024-03-23T01:41:18;99609.07;;;12.56;76.38
25944;BME280;13742;49.306;8.636;2024-03-23T01:42:18;99616.07;;;12.58;77.37
25944;BME280;13742;49.306;8.636;2024-03-23T01:43:18;99620.70;;;12.58;76.77
25944;BME280;13742;49.306;8.636;2024-03-23T01:44:18;99616.90;;;12.58;76.53
25944;BME280;13742;49.306;8.636;2024-03-23T01:45:18;99613.70;;;12.59;76.34
25944;BME280;13742;49.306;8.636;2024-03-23T01:46:18;99607.08;;;12.59;76.30
25944;BME280;13742;49.306;8.636;2024-03-23T01:47:18;99607.80;;;12.60;76.42
25944;BME280;13742;49.306;8.636;2024-03-23T01:48:21;99605.99;;;12.60;76.49
25944;BME280;13742;49.306;8.636;2024-03-23T01:49:18;99606.32;;;12.61;76.49
25944;BME280;13742;49.306;8.636;2024-03-23T01:50:18;99600.30;;;12.60;76.42
25944;BME280;13742;49.306;8.636;2024-03-23T01:51:18;99599.81;;;12.62;76.67
25944;BME280;13742;49.306;8.636;2024-03-23T01:52:18;99604.84;;;12.62;76.75
25944;BME280;13742;49.306;8.636;2024-03-23T01:53:21;99605.33;;;12.63;76.63
25944;BME280;13742;49.306;8.636;2024-03-23T01:54:18;99606.89;;;12.63;76.53
25944;BME280;13742;49.306;8.636;2024-03-23T01:55:18;99608.31;;;12.63;76.57
25944;BME280;13742;49.306;8.636;2024-03-23T01:56:18;99608.98;;;12.63;76.25
25944;BME280;13742;49.306;8.636;2024-03-23T01:57:18;99604.51;;;12.63;76.47
25944;BME280;13742;49.306;8.636;2024-03-23T01:58:18;99605.11;;;12.63;76.40
25944;BME280;13742;49.306;8.636;2024-03-23T01:59:18;99602.96;;;12.63;76.37
25944;BME280;13742;49.306;8.636;2024-03-23T02:00:18;99594.95;;;12.64;76.29
25944;BME280;13742;49.306;8.636;2024-03-23T02:01:19;99595.13;;;12.64;76.53
25944;BME280;13742;49.306;8.636;2024-03-23T02:02:19;99592.91;;;12.64;76.44
25944;BME280;13742;49.306;8.636;2024-03-23T02:04:18;99585.14;;;12.65;76.36
25944;BME280;13742;49.306;8.636;2024-03-23T02:05:18;99587.78;;;12.64;76.06
25944;BME280;13742;49.306;8.636;2024-03-23T02:06:18;99580.10;;;12.65;76.07
25944;BME280;13742;49.306;8.636;2024-03-23T02:07:18;99580.38;;;12.64;76.16
25944;BME280;13742;49.306;8.636;2024-03-23T02:08:18;99586.45;;;12.64;76.16
25944;BME280;13742;49.306;8.636;2024-03-23T02:09:18;99581.09;;;12.65;76.40
25944;BME280;13742;49.306;8.636;2024-03-23T02:10:18;99573.38;;;12.64;76.52
25944;BME280;13742;49.306;8.636;2024-03-23T02:11:18;99571.17;;;12.65;76.65
25944;BME280;13742;49.306;8.636;2024-03-23T02:12:18;99569.06;;;12.64;76.65
25944;BME280;13742;49.306;8.636;2024-03-23T02:13:18;99568.69;;;12.65;76.73
25944;BME280;13742;49.306;8.636;2024-03-23T02:14:18;99565.70;;;12.65;76.62
25944;BME280;13742;49.306;8.636;2024-03-23T02:15:18;99568.06;;;12.66;76.44
25944;BME280;13742;49.306;8.636;2024-03-23T02:16:18;99564.42;;;12.66;76.35
25944;BME280;13742;49.306;8.636;2024-03-23T02:17:18;99564.55;;;12.67;76.65
25944;BME280;13742;49.306;8.636;2024-03-23T02:18:18;99567.92;;;12.67;76.63
25944;BME280;13742;49.306;8.636;2024-03-23T02:19:18;99569.91;;;12.68;76.45
25944;BME280;13742;49.306;8.636;2024-03-23T02:20:18;99573.88;;;12.68;76.57
25944;BME280;13742;49.306;8.636;2024-03-23T02:21:18;99570.20;;;12.69;76.68
25944;BME280;13742;49.306;8.636;2024-03-23T02:22:18;99566.20;;;12.68;76.49
25944;BME280;13742;49.306;8.636;2024-03-23T02:23:18;99568.98;;;12.68;76.51
25944;BME280;13742;49.306;8.636;2024-03-23T02:24:18;99565.22;;;12.69;76.52
25944;BME280;13742;49.306;8.636;2024-03-23T02:25:18;99562.91;;;12.70;76.98
25944;BME280;13742;49.306;8.636;2024-03-23T02:26:18;99561.41;;;12.68;77.32
25944;BME280;13742;49.306;8.636;2024-03-23T02:27:18;99563.45;;;12.70;77.25
25944;BME280;13742;49.306;8.636;2024-03-23T02:28:18;99556.55;;;12.70;77.05
25944;BME280;13742;49.306;8.636;2024-03-23T02:29:19;99555.49;;;12.70;76.84
25944;BME280;13742;49.306;8.636;2024-03-23T02:30:18;99557.88;;;12.72;77.15
25944;BME280;13742;49.306;8.636;2024-03-23T02:31:18;99555.88;;;12.71;76.79
25944;BME280;13742;49.306;8.636;2024-03-23T02:32:18;99557.88;;;12.73;76.73
25944;BME280;13742;49.306;8.636;2024-03-23T02:33:18;99557.88;;;12.73;76.79
25944;BME280;13742;49.306;8.636;2024-03-23T02:34:18;99557.66;;;12.74;76.54
25944;BME280;13742;49.306;8.636;2024-03-23T02:35:18;99556.62;;;12.76;76.35
25944;BME280;13742;49.306;8.636;2024-03-23T02:36:18;99558.22;;;12.78;76.13
25944;BME280;13742;49.306;8.636;2024-03-23T02:37:18;99554.74;;;12.78;76.05
25944;BME280;13742;49.306;8.636;2024-03-23T02:38:18;99554.20;;;12.79;76.17
25944;BME280;13742;49.306;8.636;2024-03-23T02:39:18;99551.59;;;12.79;76.10
25944;BME280;13742;49.306;8.636;2024-03-23T02:40:19;99555.25;;;12.81;76.12
25944;BME280;13742;49.306;8.636;2024-03-23T02:41:22;99556.91;;;12.81;76.13
25944;BME280;13742;49.306;8.636;2024-03-23T02:42:18;99554.97;;;12.82;76.04
25944;BME280;13742;49.306;8.636;2024-03-23T02:43:18;99559.56;;;12.83;76.08
25944;BME280;13742;49.306;8.636;2024-03-23T02:44:18;99560.33;;;12.83;76.13
25944;BME280;13742;49.306;8.636;2024-03-23T02:45:18;99560.94;;;12.83;76.13
25944;BME280;13742;49.306;8.636;2024-03-23T02:46:18;99557.91;;;12.84;76.37
25944;BME280;13742;49.306;8.636;2024-03-23T02:47:18;99558.45;;;12.85;76.32
25944;BME280;13742;49.306;8.636;2024-03-23T02:48:18;99559.84;;;12.86;76.49
25944;BME280;13742;49.306;8.636;2024-03-23T02:49:18;99558.19;;;12.86;76.67
25944;BME280;13742;49.306;8.636;2024-03-23T02:50:18;99561.29;;;12.87;76.65
25944;BME280;13742;49.306;8.636;2024-03-23T02:51:18;99562.95;;;12.87;76.58
25944;BME280;13742;49.306;8.636;2024-03-23T02:52:18;99566.42;;;12.88;76.65
25944;BME280;13742;49.306;8.636;2024-03-23T02:53:18;99565.27;;;12.88;76.59
25944;BME280;13742;49.306;8.636;2024-03-23T02:54:18;99567.57;;;12.88;76.66
25944;BME280;13742;49.306;8.636;2024-03-23T02:55:18;99567.23;;;12.88;76.47
25944;BME280;13742;49.306;8.636;2024-03-23T02:56:18;99569.95;;;12.87;76.39
25944;BME280;13742;49.306;8.636;2024-03-23T02:57:18;99567.31;;;12.88;76.78
25944;BME280;13742;49.306;8.636;2024-03-23T02:58:18;99567.73;;;12.88;76.90
25944;BME280;13742;49.306;8.636;2024-03-23T02:59:18;99566.86;;;12.87;76.74
25944;BME280;13742;49.306;8.636;2024-03-23T03:00:18;99570.11;;;12.87;76.78
25944;BME280;13742;49.306;8.636;2024-03-23T03:01:18;99568.06;;;12.88;77.02
25944;BME280;13742;49.306;8.636;2024-03-23T03:02:18;99567.86;;;12.87;76.98
25944;BME280;13742;49.306;8.636;2024-03-23T03:03:18;99571.22;;;12.88;77.13
25944;BME280;13742;49.306;8.636;2024-03-23T03:04:18;99569.40;;;12.86;77.37
25944;BME280;13742;49.306;8.636;2024-03-23T03:05:18;99571.71;;;12.88;77.36
25944;BME280;13742;49.306;8.636;2024-03-23T03:07:18;99572.59;;;12.87;77.31
25944;BME280;13742;49.306;8.636;2024-03-23T03:08:18;99577.73;;;12.87;77.24
25944;BME280;13742;49.306;8.636;2024-03-23T03:09:18;99572.55;;;12.86;77.24
25944;BME280;13742;49.306;8.636;2024-03-23T03:10:18;99568.30;;;12.86;77.47
25944;BME280;13742;49.306;8.636;2024-03-23T03:11:18;99568.63;;;12.86;77.46
25944;BME280;13742;49.306;8.636;2024-03-23T03:12:18;99569.28;;;12.86;77.49
25944;BME280;13742;49.306;8.636;2024-03-23T03:13:18;99572.09;;;12.86;77.52
25944;BME280;13742;49.306;8.636;2024-03-23T03:14:18;99568.47;;;12.85;77.67
25944;BME280;13742;49.306;8.636;2024-03-23T03:15:18;99564.16;;;12.85;77.64
25944;BME280;13742;49.306;8.636;2024-03-23T03:16:18;99565.42;;;12.84;77.45
25944;BME280;13742;49.306;8.636;2024-03-23T03:17:19;99566.41;;;12.85;77.73
25944;BME280;13742;49.306;8.636;2024-03-23T03:18:18;99568.63;;;12.83;77.50
25944;BME280;13742;49.306;8.636;2024-03-23T03:19:18;99566.84;;;12.83;77.21
25944;BME280;13742;49.306;8.636;2024-03-23T03:20:18;99571.67;;;12.83;77.47
25944;BME280;13742;49.306;8.636;2024-03-23T03:21:19;99569.89;;;12.82;77.72
25944;BME280;13742;49.306;8.636;2024-03-23T03:22:18;99566.07;;;12.82;77.78
25944;BME280;13742;49.306;8.636;2024-03-23T03:23:19;99569.83;;;12.81;77.51
25944;BME280;13742;49.306;8.636;2024-03-23T03:24:18;99573.58;;;12.81;77.35
25944;BME280;13742;49.306;8.636;2024-03-23T03:25:18;99572.48;;;12.80;77.39
25944;BME280;13742;49.306;8.636;2024-03-23T03:26:18;99568.55;;;12.79;77.61
25944;BME280;13742;49.306;8.636;2024-03-23T03:27:18;99566.84;;;12.78;77.80
25944;BME280;13742;49.306;8.636;2024-03-23T03:28:18;99568.82;;;12.79;77.98
25944;BME280;13742;49.306;8.636;2024-03-23T03:29:18;99566.84;;;12.78;78.38
25944;BME280;13742;49.306;8.636;2024-03-23T03:30:18;99560.94;;;12.78;78.17
25944;BME280;13742;49.306;8.636;2024-03-23T03:31:18;99559.22;;;12.77;77.89
25944;BME280;13742;49.306;8.636;2024-03-23T03:32:18;99558.00;;;12.77;77.91
25944;BME280;13742;49.306;8.636;2024-03-23T03:33:18;99563.69;;;12.77;77.93
25944;BME280;13742;49.306;8.636;2024-03-23T03:34:18;99559.17;;;12.77;78.25
25944;BME280;13742;49.306;8.636;2024-03-23T03:35:18;99558.62;;;12.76;78.21
25944;BME280;13742;49.306;8.636;2024-03-23T03:36:18;99555.75;;;12.75;78.28
25944;BME280;13742;49.306;8.636;2024-03-23T03:37:18;99560.77;;;12.76;78.40
25944;BME280;13742;49.306;8.636;2024-03-23T03:38:18;99558.66;;;12.75;78.42
25944;BME280;13742;49.306;8.636;2024-03-23T03:39:18;99560.64;;;12.75;78.39
25944;BME280;13742;49.306;8.636;2024-03-23T03:40:18;99560.61;;;12.76;78.44
25944;BME280;13742;49.306;8.636;2024-03-23T03:41:18;99556.02;;;12.76;78.48
25944;BME280;13742;49.306;8.636;2024-03-23T03:42:18;99557.28;;;12.76;78.37
25944;BME280;13742;49.306;8.636;2024-03-23T03:43:18;99551.98;;;12.75;78.63
25944;BME280;13742;49.306;8.636;2024-03-23T03:44:18;99547.00;;;12.74;78.59
25944;BME280;13742;49.306;8.636;2024-03-23T03:45:18;99545.56;;;12.75;78.54
25944;BME280;13742;49.306;8.636;2024-03-23T03:46:18;99537.89;;;12.74;78.42
25944;BME280;13742;49.306;8.636;2024-03-23T03:47:18;99538.83;;;12.74;78.50
25944;BME280;13742;49.306;8.636;2024-03-23T03:48:18;99543.80;;;12.74;78.86
25944;BME280;13742;49.306;8.636;2024-03-23T03:49:18;99548.00;;;12.74;78.83
25944;BME280;13742;49.306;8.636;2024-03-23T03:50:18;99546.84;;;12.75;78.81
25944;BME280;13742;49.306;8.636;2024-03-23T03:51:18;99551.09;;;12.74;78.79
25944;BME280;13742;49.306;8.636;2024-03-23T03:52:18;99549.11;;;12.74;78.88
25944;BME280;13742;49.306;8.636;2024-03-23T03:53:18;99547.45;;;12.74;78.78
25944;BME280;13742;49.306;8.636;2024-03-23T03:54:18;99550.59;;;12.73;78.77
25944;BME280;13742;49.306;8.636;2024-03-23T03:55:18;99550.03;;;12.73;79.23
25944;BME280;13742;49.306;8.636;2024-03-23T03:56:18;99546.61;;;12.73;79.16
25944;BME280;13742;49.306;8.636;2024-03-23T03:57:19;99544.73;;;12.72;78.88
25944;BME280;13742;49.306;8.636;2024-03-23T03:58:18;99543.63;;;12.73;79.07
25944;BME280;13742;49.306;8.636;2024-03-23T03:59:18;99546.39;;;12.72;79.00
25944;BME280;13742;49.306;8.636;2024-03-23T04:00:18;99543.80;;;12.72;78.91
25944;BME280;13742;49.306;8.636;2024-03-23T04:01:18;99535.41;;;12.73;78.25
25944;BME280;13742;49.306;8.636;2024-03-23T04:02:18;99535.41;;;12.73;77.87
25944;BME280;13742;49.306;8.636;2024-03-23T04:03:18;99531.88;;;12.73;77.77
25944;BME280;13742;49.306;8.636;2024-03-23T04:04:18;99532.05;;;12.74;77.64
25944;BME280;13742;49.306;8.636;2024-03-23T04:05:19;99527.84;;;12.74;77.65
25944;BME280;13742;49.306;8.636;2024-03-23T04:06:18;99529.67;;;12.74;77.39
25944;BME280;13742;49.306;8.636;2024-03-23T04:07:18;99530.38;;;12.74;77.42
25944;BME280;13742;49.306;8.636;2024-03-23T04:08:18;99531.05;;;12.74;77.40
25944;BME280;13742;49.306;8.636;2024-03-23T04:09:18;99538.39;;;12.74;77.32
25944;BME280;13742;49.306;8.636;2024-03-23T04:10:18;99527.69;;;12.74;76.69
25944;BME280;13742;49.306;8.636;2024-03-23T04:11:18;99525.47;;;12.74;76.64
25944;BME280;13742;49.306;8.636;2024-03-23T04:12:18;99520.34;;;12.75;76.80
25944;BME280;13742;49.306;8.636;2024-03-23T04:13:18;99512.06;;;12.73;76.81
25944;BME280;13742;49.306;8.636;2024-03-23T04:14:18;99511.61;;;12.74;76.52
25944;BME280;13742;49.306;8.636;2024-03-23T04:15:18;99520.95;;;12.74;75.78
25944;BME280;13742;49.306;8.636;2024-03-23T04:17:18;99522.50;;;12.75;75.19
25944;BME280;13742;49.306;8.636;2024-03-23T04:18:18;99519.05;;;12.73;75.07
25944;BME280;13742;49.306;8.636;2024-03-23T04:19:18;99506.53;;;12.74;74.85
25944;BME280;13742;49.306;8.636;2024-03-23T04:20:18;99503.06;;;12.74;74.56
25944;BME280;13742;49.306;8.636;2024-03-23T04:21:18;99513.59;;;12.73;74.49
25944;BME280;13742;49.306;8.636;2024-03-23T04:22:18;99522.28;;;12.74;74.35
25944;BME280;13742;49.306;8.636;2024-03-23T04:23:18;99520.55;;;12.73;74.35
25944;BME280;13742;49.306;8.636;2024-03-23T04:24:20;99520.06;;;12.74;74.37
25944;BME280;13742;49.306;8.636;2024-03-23T04:25:19;99522.17;;;12.75;74.37
25944;BME280;13742;49.306;8.636;2024-03-23T04:26:18;99516.53;;;12.75;74.48
25944;BME280;13742;49.306;8.636;2024-03-23T04:27:18;99519.29;;;12.75;74.61
25944;BME280;13742;49.306;8.636;2024-03-23T04:28:18;99517.41;;;12.75;74.46
25944;BME280;13742;49.306;8.636;2024-03-23T04:29:18;99512.11;;;12.75;74.37
25944;BME280;13742;49.306;8.636;2024-03-23T04:30:19;99514.97;;;12.74;74.31
25944;BME280;13742;49.306;8.636;2024-03-23T04:31:18;99520.11;;;12.74;74.42
25944;BME280;13742;49.306;8.636;2024-03-23T04:32:18;99515.48;;;12.75;74.35
25944;BME280;13742;49.306;8.636;2024-03-23T04:33:18;99515.09;;;12.75;74.35
25944;BME280;13742;49.306;8.636;2024-03-23T04:34:18;99511.94;;;12.75;74.40
25944;BME280;13742;49.306;8.636;2024-03-23T04:35:20;99515.58;;;12.73;74.39
25944;BME280;13742;49.306;8.636;2024-03-23T04:36:19;99521.22;;;12.74;74.50
25944;BME280;13742;49.306;8.636;2024-03-23T04:37:18;99522.71;;;12.74;74.67
25944;BME280;13742;49.306;8.636;2024-03-23T04:38:18;99519.05;;;12.73;74.65
25944;BME280;13742;49.306;8.636;2024-03-23T04:39:19;99519.39;;;12.73;74.66
25944;BME280;13742;49.306;8.636;2024-03-23T04:40:18;99526.85;;;12.74;74.74
25944;BME280;13742;49.306;8.636;2024-03-23T04:41:18;99525.69;;;12.72;74.88
25944;BME280;13742;49.306;8.636;2024-03-23T04:42:18;99522.49;;;12.73;74.96
25944;BME280;13742;49.306;8.636;2024-03-23T04:43:18;99537.45;;;12.72;74.52
25944;BME280;13742;49.306;8.636;2024-03-23T04:44:18;99529.83;;;12.72;74.47
25944;BME280;13742;49.306;8.636;2024-03-23T04:45:18;99536.45;;;12.71;74.42
25944;BME280;13742;49.306;8.636;2024-03-23T04:46:18;99526.30;;;12.71;74.39
25944;BME280;13742;49.306;8.636;2024-03-23T04:47:18;99542.92;;;12.71;74.04
25944;BME280;13742;49.306;8.636;2024-03-23T04:48:20;99530.20;;;12.71;74.09
25944;BME280;13742;49.306;8.636;2024-03-23T04:49:18;99527.84;;;12.71;74.24
25944;BME280;13742;49.306;8.636;2024-03-23T04:50:18;99527.11;;;12.69;74.39
25944;BME280;13742;49.306;8.636;2024-03-23T04:51:21;99526.69;;;12.70;74.43
25944;BME280;13742;49.306;8.636;2024-03-23T04:52:18;99531.60;;;12.69;74.43
25944;BME280;13742;49.306;8.636;2024-03-23T04:53:18;99520.61;;;12.68;74.37
25944;BME280;13742;49.306;8.636;2024-03-23T04:54:18;99528.61;;;12.67;74.10
25944;BME280;13742;49.306;8.636;2024-03-23T04:55:18;99533.78;;;12.66;74.08
25944;BME280;13742;49.306;8.636;2024-03-23T04:56:18;99533.35;;;12.64;74.27
25944;BME280;13742;49.306;8.636;2024-03-23T04:57:18;99535.28;;;12.63;74.25
25944;BME280;13742;49.306;8.636;2024-03-23T04:58:18;99536.22;;;12.62;74.21
25944;BME280;13742;49.306;8.636;2024-03-23T04:59:18;99533.50;;;12.59;74.19
25944;BME280;13742;49.306;8.636;2024-03-23T05:00:19;99538.53;;;12.59;74.07
25944;BME280;13742;49.306;8.636;2024-03-23T05:01:18;99537.73;;;12.58;74.14
25944;BME280;13742;49.306;8.636;2024-03-23T05:02:18;99542.48;;;12.57;74.17
25944;BME280;13742;49.306;8.636;2024-03-23T05:03:19;99525.16;;;12.54;74.25
25944;BME280;13742;49.306;8.636;2024-03-23T05:04:18;99516.05;;;12.52;74.23
25944;BME280;13742;49.306;8.636;2024-03-23T05:05:18;99512.83;;;12.51;74.21
25944;BME280;13742;49.306;8.636;2024-03-23T05:06:18;99513.40;;;12.51;74.29
25944;BME280;13742;49.306;8.636;2024-03-23T05:07:18;99523.10;;;12.50;74.12
25944;BME280;13742;49.306;8.636;2024-03-23T05:08:18;99529.94;;;12.50;74.52
25944;BME280;13742;49.306;8.636;2024-03-23T05:09:18;99535.24;;;12.46;74.63
25944;BME280;13742;49.306;8.636;2024-03-23T05:10:18;99541.14;;;12.45;74.50
25944;BME280;13742;49.306;8.636;2024-03-23T05:11:18;99544.48;;;12.42;74.74
25944;BME280;13742;49.306;8.636;2024-03-23T05:12:18;99548.24;;;12.42;74.84
25944;BME280;13742;49.306;8.636;2024-03-23T05:13:18;99550.83;;;12.39;75.09
25944;BME280;13742;49.306;8.636;2024-03-23T05:14:18;99550.28;;;12.39;75.05
25944;BME280;13742;49.306;8.636;2024-03-23T05:15:18;99548.78;;;12.39;75.14
25944;BME280;13742;49.306;8.636;2024-03-23T05:16:18;99548.90;;;12.39;75.43
25944;BME280;13742;49.306;8.636;2024-03-23T05:17:18;99549.43;;;12.36;75.67
25944;BME280;13742;49.306;8.636;2024-03-23T05:18:18;99552.80;;;12.36;75.50
25944;BME280;13742;49.306;8.636;2024-03-23T05:19:18;99554.34;;;12.34;75.41
25944;BME280;13742;49.306;8.636;2024-03-23T05:20:19;99555.00;;;12.33;75.43
25944;BME280;13742;49.306;8.636;2024-03-23T05:21:18;99557.09;;;12.31;75.52
25944;BME280;13742;49.306;8.636;2024-03-23T05:22:18;99547.14;;;12.28;75.96
25944;BME280;13742;49.306;8.636;2024-03-23T05:23:18;99548.95;;;12.26;75.51
25944;BME280;13742;49.306;8.636;2024-03-23T05:24:18;99558.33;;;12.26;75.42
25944;BME280;13742;49.306;8.636;2024-03-23T05:25:18;99556.84;;;12.26;75.32
25944;BME280;13742;49.306;8.636;2024-03-23T05:26:18;99557.55;;;12.25;75.58
25944;BME280;13742;49.306;8.636;2024-03-23T05:27:18;99559.80;;;12.24;75.67
25944;BME280;13742;49.306;8.636;2024-03-23T05:28:18;99554.91;;;12.24;75.76
25944;BME280;13742;49.306;8.636;2024-03-23T05:29:18;99550.14;;;12.19;75.57
25944;BME280;13742;49.306;8.636;2024-03-23T05:30:18;99549.41;;;12.17;75.22
25944;BME280;13742;49.306;8.636;2024-03-23T05:32:18;99561.22;;;12.17;74.83
25944;BME280;13742;49.306;8.636;2024-03-23T05:33:21;99565.58;;;12.18;74.75
25944;BME280;13742;49.306;8.636;2024-03-23T05:34:18;99568.22;;;12.18;74.97
25944;BME280;13742;49.306;8.636;2024-03-23T05:35:18;99568.88;;;12.16;75.25
25944;BME280;13742;49.306;8.636;2024-03-23T05:36:18;99580.69;;;12.15;74.55
25944;BME280;13742;49.306;8.636;2024-03-23T05:37:18;99566.06;;;12.14;74.56
25944;BME280;13742;49.306;8.636;2024-03-23T05:38:18;99573.78;;;12.12;74.40
25944;BME280;13742;49.306;8.636;2024-03-23T05:39:18;99580.22;;;12.12;74.44
25944;BME280;13742;49.306;8.636;2024-03-23T05:40:18;99585.71;;;12.09;74.78
25944;BME280;13742;49.306;8.636;2024-03-23T05:41:18;99590.08;;;12.10;74.38
25944;BME280;13742;49.306;8.636;2024-03-23T05:42:18;99601.54;;;12.08;74.03
25944;BME280;13742;49.306;8.636;2024-03-23T05:43:18;99607.78;;;12.07;74.00
25944;BME280;13742;49.306;8.636;2024-03-23T05:44:18;99611.30;;;12.05;74.30
25944;BME280;13742;49.306;8.636;2024-03-23T05:45:18;99608.97;;;12.03;74.11
25944;BME280;13742;49.306;8.636;2024-03-23T05:46:18;99606.27;;;12.03;73.83
25944;BME280;13742;49.306;8.636;2024-03-23T05:47:18;99613.94;;;12.03;73.81
25944;BME280;13742;49.306;8.636;2024-03-23T05:48:18;99614.20;;;12.02;73.95
25944;BME280;13742;49.306;8.636;2024-03-23T05:49:18;99618.77;;;12.00;74.00
25944;BME280;13742;49.306;8.636;2024-03-23T05:50:18;99621.30;;;11.92;74.21
25944;BME280;13742;49.306;8.636;2024-03-23T05:51:18;99624.52;;;11.94;74.00
25944;BME280;13742;49.306;8.636;2024-03-23T05:52:18;99627.97;;;11.92;74.17
25944;BME280;13742;49.306;8.636;2024-03-23T05:53:18;99635.25;;;11.91;74.26
25944;BME280;13742;49.306;8.636;2024-03-23T05:54:18;99646.63;;;11.86;74.52
25944;BME280;13742;49.306;8.636;2024-03-23T05:55:18;99660.30;;;11.84;74.83
25944;BME280;13742;49.306;8.636;2024-03-23T05:56:19;99674.10;;;11.73;74.31
25944;BME280;13742;49.306;8.636;2024-03-23T05:57:18;99685.24;;;11.53;73.77
25944;BME280;13742;49.306;8.636;2024-03-23T05:58:21;99687.55;;;11.46;73.55
25944;BME280;13742;49.306;8.636;2024-03-23T05:59:18;99697.56;;;11.24;73.19
25944;BME280;13742;49.306;8.636;2024-03-23T06:00:18;99697.47;;;10.95;72.15
25944;BME280;13742;49.306;8.636;2024-03-23T06:01:18;99708.36;;;10.82;72.37
25944;BME280;13742;49.306;8.636;2024-03-23T06:02:18;99705.84;;;10.69;72.67
25944;BME280;13742;49.306;8.636;2024-03-23T06:03:18;99708.47;;;10.63;73.16
25944;BME280;13742;49.306;8.636;2024-03-23T06:04:18;99707.47;;;10.51;73.74
25944;BME280;13742;49.306;8.636;2024-03-23T06:05:18;99715.71;;;10.46;74.12
25944;BME280;13742;49.306;8.636;2024-03-23T06:06:18;99712.26;;;10.36;74.39
25944;BME280;13742;49.306;8.636;2024-03-23T06:07:18;99718.55;;;10.36;74.48
25944;BME280;13742;49.306;8.636;2024-03-23T06:08:18;99724.48;;;10.36;74.46
25944;BME280;13742;49.306;8.636;2024-03-23T06:09:18;99729.75;;;10.27;74.62
25944;BME280;13742;49.306;8.636;2024-03-23T06:10:18;99732.17;;;10.25;74.66
25944;BME280;13742;49.306;8.636;2024-03-23T06:11:18;99733.27;;;10.21;74.89
25944;BME280;13742;49.306;8.636;2024-03-23T06:12:18;99733.68;;;10.19;74.81
25944;BME280;13742;49.306;8.636;2024-03-23T06:13:18;99737.33;;;10.20;74.94